Home   Weather   Taipei   Past weeks
Flag for Taiwan

Past Weather in Taipei, Taiwan — Yesterday and Last 2 Weeks

Currently: 64 °F. Drizzle. Partly sunny. (Weather station: Sungshan / Taipei, Taiwan). See more current weather

Past Weather in Taipei — Graph

°F

Taipei Temperature Yesterday

Maximum temperature yesterday: 79 °F (at 1:30 pm)
Minimum temperature yesterday: 52 °F (at 2:00 am)
Average temperature yesterday: 64 °F

High & Low Weather Summary for the Past Weeks

 TemperatureHumidityPressure
High79 °F (Jan 15, 1:30 pm)100% (Jan 4, 1:00 am)30.36 "Hg (Jan 4, 1:00 am)
Low43 °F (Jan 13, 4:00 am)32% (Jan 15, 1:30 pm)29.92 "Hg (Jan 15, 1:00 pm)
Average58 °F80%30.17 "Hg
* Reported Jan 1 4:00 pm — Jan 16 4:00 pm, Taipei. Weather by CustomWeather, © 2021

Note: Actual official high and low records may vary slightly from our data, if they occured in-between our weather recording intervals... More about our weather records

Taipei Weather History for the Previous 24 Hours

Scroll right to see more
 ConditionsComfort  
Time TempWeatherWind HumidityBarometerVisibility
4:00 pm
Sat, Jan 16
64 °FDrizzle. Partly sunny.14 mph78%30.07 "Hg4 mi
3:30 pm66 °FDrizzle. Partly sunny.14 mph73%30.07 "Hg4 mi
3:00 pm70 °FDrizzle. Partly sunny.17 mph69%30.04 "Hg4 mi
2:30 pm70 °FDrizzle. Partly sunny.16 mph69%30.01 "Hg5 mi
2:00 pm72 °FPassing clouds.14 mph65%30.01 "HgN/A
1:30 pm73 °FPassing clouds.16 mph53%30.01 "HgN/A
1:00 pm73 °FPassing clouds.16 mph53%30.04 "HgN/A
12:30 pm73 °FPassing clouds.15 mph53%30.04 "HgN/A
12:00 pm73 °FPassing clouds.16 mph53%30.07 "HgN/A
11:30 am73 °FPassing clouds.15 mph57%30.07 "HgN/A
11:00 am73 °FPassing clouds.16 mph53%30.07 "HgN/A
10:30 am73 °FPassing clouds.16 mph53%30.09 "HgN/A
10:00 am73 °FPassing clouds.15 mph57%30.09 "HgN/A
9:30 am72 °FPassing clouds.16 mph61%30.09 "HgN/A
9:00 am70 °FPassing clouds.13 mph73%30.09 "HgN/A
8:30 am68 °FPassing clouds.9 mph78%30.09 "HgN/A
7:30 am63 °FPassing clouds.9 mph88%30.07 "HgN/A
7:00 am59 °FPassing clouds.7 mph88%30.07 "HgN/A
6:30 am57 °FPassing clouds.8 mph94%30.07 "HgN/A
6:00 am61 °FPassing clouds.8 mph83%30.04 "HgN/A
5:00 am63 °FPassing clouds.9 mph88%30.01 "HgN/A
4:00 am57 °FPassing clouds.6 mph100%30.01 "HgN/A
3:00 am57 °FPassing clouds.5 mph100%30.01 "HgN/A
2:00 am59 °FPassing clouds.6 mph94%30.04 "HgN/A
1:00 am57 °FPassing clouds.6 mph100%30.04 "HgN/A
12:00 am59 °FPassing clouds.3 mph94%30.01 "HgN/A
11:30 pm
Fri, Jan 15
59 °FPassing clouds.3 mph94%30.01 "HgN/A
11:00 pm59 °FPassing clouds.2 mph94%30.01 "HgN/A
10:30 pm59 °FPassing clouds.5 mph94%30.01 "Hg6 mi
10:00 pm59 °FPassing clouds.7 mph94%30.01 "Hg6 mi
9:30 pm57 °FPassing clouds.7 mph94%30.01 "Hg6 mi
9:00 pm61 °FClear.5 mph88%30.01 "Hg10 mi
8:30 pm61 °FClear.5 mph94%29.98 "Hg10 mi
8:00 pm61 °FClear.6 mph88%29.98 "Hg10 mi
7:30 pm63 °FClear.7 mph83%29.95 "Hg10 mi
7:00 pm63 °FClear.9 mph88%29.95 "Hg10 mi
6:30 pm63 °FClear.8 mph83%29.95 "Hg10 mi
6:00 pm64 °FClear.7 mph78%29.95 "Hg10 mi
5:30 pm64 °FClear.8 mph78%29.95 "Hg10 mi
5:00 pm68 °FSunny.12 mph69%29.95 "Hg10 mi
Weather by CustomWeather, © 2021

See weather overview